sensor_id;sensor_type;location;lat;lon;timestamp;temperature;humidity
4604;DHT22;2314;48.272;11.562;2022-08-03T00:01:05;16.40;99.90
4604;DHT22;2314;48.272;11.562;2022-08-03T00:03:32;16.40;99.90
4604;DHT22;2314;48.272;11.562;2022-08-03T00:05:59;16.40;99.90
4604;DHT22;2314;48.272;11.562;2022-08-03T00:08:26;16.40;99.90
4604;DHT22;2314;48.272;11.562;2022-08-03T00:10:53;16.30;99.90
4604;DHT22;2314;48.272;11.562;2022-08-03T00:13:21;16.30;99.90
4604;DHT22;2314;48.272;11.562;2022-08-03T00:15:48;16.30;99.90
4604;DHT22;2314;48.272;11.562;2022-08-03T00:18:16;16.30;99.90
4604;DHT22;2314;48.272;11.562;2022-08-03T00:20:44;16.20;99.90
4604;DHT22;2314;48.272;11.562;2022-08-03T00:23:11;16.20;99.90
4604;DHT22;2314;48.272;11.562;2022-08-03T00:25:38;16.10;99.90
4604;DHT22;2314;48.272;11.562;2022-08-03T00:28:06;16.10;99.90
4604;DHT22;2314;48.272;11.562;2022-08-03T00:30:34;16.10;99.90
4604;DHT22;2314;48.272;11.562;2022-08-03T00:33:02;16.00;99.90
4604;DHT22;2314;48.272;11.562;2022-08-03T00:35:30;16.00;99.90
4604;DHT22;2314;48.272;11.562;2022-08-03T00:37:58;16.10;99.90
4604;DHT22;2314;48.272;11.562;2022-08-03T00:40:26;16.00;99.90
4604;DHT22;2314;48.272;11.562;2022-08-03T00:42:55;16.00;99.90
4604;DHT22;2314;48.272;11.562;2022-08-03T00:45:25;16.00;99.90
4604;DHT22;2314;48.272;11.562;2022-08-03T00:47:58;16.00;99.90
4604;DHT22;2314;48.272;11.562;2022-08-03T00:50:27;15.90;99.90
4604;DHT22;2314;48.272;11.562;2022-08-03T00:52:58;15.90;99.90
4604;DHT22;2314;48.272;11.562;2022-08-03T00:55:25;15.90;99.90
4604;DHT22;2314;48.272;11.562;2022-08-03T00:57:56;15.80;99.90
4604;DHT22;2314;48.272;11.562;2022-08-03T01:00:26;15.80;99.90
4604;DHT22;2314;48.272;11.562;2022-08-03T01:02:57;15.80;99.90
4604;DHT22;2314;48.272;11.562;2022-08-03T01:05:24;15.80;99.90
4604;DHT22;2314;48.272;11.562;2022-08-03T01:08:01;15.70;99.90
4604;DHT22;2314;48.272;11.562;2022-08-03T01:10:38;15.70;99.90
4604;DHT22;2314;48.272;11.562;2022-08-03T01:13:20;15.70;99.90
4604;DHT22;2314;48.272;11.562;2022-08-03T01:15:55;15.60;99.90
4604;DHT22;2314;48.272;11.562;2022-08-03T01:18:31;15.60;99.90
4604;DHT22;2314;48.272;11.562;2022-08-03T01:21:08;15.60;99.90
4604;DHT22;2314;48.272;11.562;2022-08-03T01:23:51;15.60;99.90
4604;DHT22;2314;48.272;11.562;2022-08-03T01:26:41;15.50;99.90
4604;DHT22;2314;48.272;11.562;2022-08-03T01:32:30;15.40;99.90
4604;DHT22;2314;48.272;11.562;2022-08-03T01:35:05;15.40;99.90
4604;DHT22;2314;48.272;11.562;2022-08-03T01:37:40;15.40;99.90
4604;DHT22;2314;48.272;11.562;2022-08-03T01:40:12;15.40;99.90
4604;DHT22;2314;48.272;11.562;2022-08-03T01:42:40;15.40;99.90
4604;DHT22;2314;48.272;11.562;2022-08-03T01:45:13;15.30;99.90
4604;DHT22;2314;48.272;11.562;2022-08-03T01:47:43;15.30;99.90
4604;DHT22;2314;48.272;11.562;2022-08-03T01:50:12;15.20;99.90
4604;DHT22;2314;48.272;11.562;2022-08-03T01:52:41;15.20;99.90
4604;DHT22;2314;48.272;11.562;2022-08-03T01:55:10;15.20;99.90
4604;DHT22;2314;48.272;11.562;2022-08-03T01:57:40;15.10;99.90
4604;DHT22;2314;48.272;11.562;2022-08-03T02:00:12;15.10;99.90
4604;DHT22;2314;48.272;11.562;2022-08-03T02:02:41;15.10;99.90
4604;DHT22;2314;48.272;11.562;2022-08-03T02:05:10;15.10;99.90
4604;DHT22;2314;48.272;11.562;2022-08-03T02:07:40;15.10;99.90
4604;DHT22;2314;48.272;11.562;2022-08-03T02:10:08;15.10;99.90
4604;DHT22;2314;48.272;11.562;2022-08-03T02:12:39;15.00;99.90
4604;DHT22;2314;48.272;11.562;2022-08-03T02:15:11;15.00;99.90
4604;DHT22;2314;48.272;11.562;2022-08-03T02:17:42;15.00;99.90
4604;DHT22;2314;48.272;11.562;2022-08-03T02:20:10;15.00;99.90
4604;DHT22;2314;48.272;11.562;2022-08-03T02:22:40;14.90;99.90
4604;DHT22;2314;48.272;11.562;2022-08-03T02:25:10;14.90;99.90
4604;DHT22;2314;48.272;11.562;2022-08-03T02:27:50;14.90;99.90
4604;DHT22;2314;48.272;11.562;2022-08-03T02:30:25;14.90;99.90
4604;DHT22;2314;48.272;11.562;2022-08-03T02:32:57;14.90;99.90
4604;DHT22;2314;48.272;11.562;2022-08-03T02:35:28;14.90;99.90
4604;DHT22;2314;48.272;11.562;2022-08-03T02:38:00;14.90;99.90
4604;DHT22;2314;48.272;11.562;2022-08-03T02:40:30;14.80;99.90
4604;DHT22;2314;48.272;11.562;2022-08-03T02:43:02;14.80;99.90
4604;DHT22;2314;48.272;11.562;2022-08-03T02:45:34;14.80;99.90
4604;DHT22;2314;48.272;11.562;2022-08-03T02:48:04;14.80;99.90
4604;DHT22;2314;48.272;11.562;2022-08-03T02:50:33;14.80;99.90
4604;DHT22;2314;48.272;11.562;2022-08-03T02:53:01;14.70;99.90
4604;DHT22;2314;48.272;11.562;2022-08-03T02:55:29;14.70;99.90
4604;DHT22;2314;48.272;11.562;2022-08-03T02:57:59;14.70;99.90
4604;DHT22;2314;48.272;11.562;2022-08-03T03:00:27;14.70;99.90
4604;DHT22;2314;48.272;11.562;2022-08-03T03:02:57;14.70;99.90
4604;DHT22;2314;48.272;11.562;2022-08-03T03:05:25;14.60;99.90
4604;DHT22;2314;48.272;11.562;2022-08-03T03:07:52;14.60;99.90
4604;DHT22;2314;48.272;11.562;2022-08-03T03:10:21;14.60;99.90
4604;DHT22;2314;48.272;11.562;2022-08-03T03:12:50;14.60;99.90
4604;DHT22;2314;48.272;11.562;2022-08-03T03:15:19;14.60;99.90
4604;DHT22;2314;48.272;11.562;2022-08-03T03:17:46;14.50;99.90
4604;DHT22;2314;48.272;11.562;2022-08-03T03:20:16;14.50;99.90
4604;DHT22;2314;48.272;11.562;2022-08-03T03:22:44;14.50;99.90
4604;DHT22;2314;48.272;11.562;2022-08-03T03:25:12;14.50;99.90
4604;DHT22;2314;48.272;11.562;2022-08-03T03:27:39;14.50;99.90
4604;DHT22;2314;48.272;11.562;2022-08-03T03:30:08;14.40;99.90
4604;DHT22;2314;48.272;11.562;2022-08-03T03:32:35;14.40;99.90
4604;DHT22;2314;48.272;11.562;2022-08-03T03:35:05;14.40;99.90
4604;DHT22;2314;48.272;11.562;2022-08-03T03:37:34;14.40;99.90
4604;DHT22;2314;48.272;11.562;2022-08-03T03:40:01;14.40;99.90
4604;DHT22;2314;48.272;11.562;2022-08-03T03:42:29;14.40;99.90
4604;DHT22;2314;48.272;11.562;2022-08-03T03:44:56;14.40;99.90
4604;DHT22;2314;48.272;11.562;2022-08-03T03:47:23;14.40;99.90
4604;DHT22;2314;48.272;11.562;2022-08-03T03:49:50;14.40;99.90
4604;DHT22;2314;48.272;11.562;2022-08-03T03:52:17;14.30;99.90
4604;DHT22;2314;48.272;11.562;2022-08-03T03:54:46;14.30;99.90
4604;DHT22;2314;48.272;11.562;2022-08-03T03:57:13;14.40;99.90
4604;DHT22;2314;48.272;11.562;2022-08-03T03:59:41;14.40;99.90
4604;DHT22;2314;48.272;11.562;2022-08-03T04:02:09;14.30;99.90
4604;DHT22;2314;48.272;11.562;2022-08-03T04:04:37;14.30;99.90
4604;DHT22;2314;48.272;11.562;2022-08-03T04:07:23;14.30;99.90
4604;DHT22;2314;48.272;11.562;2022-08-03T04:10:19;14.30;99.90
4604;DHT22;2314;48.272;11.562;2022-08-03T04:13:08;14.30;99.90
4604;DHT22;2314;48.272;11.562;2022-08-03T04:15:37;14.30;99.90
4604;DHT22;2314;48.272;11.562;2022-08-03T04:18:07;14.30;99.90
4604;DHT22;2314;48.272;11.562;2022-08-03T04:20:38;14.30;99.90
4604;DHT22;2314;48.272;11.562;2022-08-03T04:23:06;14.30;99.90
4604;DHT22;2314;48.272;11.562;2022-08-03T04:25:36;14.30;99.90
4604;DHT22;2314;48.272;11.562;2022-08-03T04:28:06;14.40;99.90
4604;DHT22;2314;48.272;11.562;2022-08-03T04:30:36;14.40;99.90
4604;DHT22;2314;48.272;11.562;2022-08-03T04:33:08;14.40;99.90
4604;DHT22;2314;48.272;11.562;2022-08-03T04:35:35;14.40;99.90
4604;DHT22;2314;48.272;11.562;2022-08-03T04:38:05;14.40;99.90
4604;DHT22;2314;48.272;11.562;2022-08-03T04:40:36;14.50;99.90
4604;DHT22;2314;48.272;11.562;2022-08-03T04:43:07;14.50;99.90
4604;DHT22;2314;48.272;11.562;2022-08-03T04:45:35;14.50;99.90
4604;DHT22;2314;48.272;11.562;2022-08-03T04:48:04;14.50;99.90
4604;DHT22;2314;48.272;11.562;2022-08-03T04:50:31;14.60;99.90
4604;DHT22;2314;48.272;11.562;2022-08-03T04:52:59;14.60;99.90
4604;DHT22;2314;48.272;11.562;2022-08-03T04:55:26;14.70;99.90
4604;DHT22;2314;48.272;11.562;2022-08-03T04:57:55;14.70;99.90
4604;DHT22;2314;48.272;11.562;2022-08-03T05:00:22;14.70;99.90
4604;DHT22;2314;48.272;11.562;2022-08-03T05:02:50;14.80;99.90
4604;DHT22;2314;48.272;11.562;2022-08-03T05:05:18;14.90;99.90
4604;DHT22;2314;48.272;11.562;2022-08-03T05:07:45;14.90;99.90
4604;DHT22;2314;48.272;11.562;2022-08-03T05:10:13;15.00;99.90
4604;DHT22;2314;48.272;11.562;2022-08-03T05:12:40;15.10;99.90
4604;DHT22;2314;48.272;11.562;2022-08-03T05:15:09;15.10;99.90
4604;DHT22;2314;48.272;11.562;2022-08-03T05:17:37;15.20;99.90
4604;DHT22;2314;48.272;11.562;2022-08-03T05:20:05;15.30;99.90
4604;DHT22;2314;48.272;11.562;2022-08-03T05:22:32;15.40;99.90
4604;DHT22;2314;48.272;11.562;2022-08-03T05:25:00;15.40;99.90
4604;DHT22;2314;48.272;11.562;2022-08-03T05:27:27;15.60;99.90
4604;DHT22;2314;48.272;11.562;2022-08-03T05:29:54;15.60;99.90
4604;DHT22;2314;48.272;11.562;2022-08-03T05:32:22;15.70;99.90
4604;DHT22;2314;48.272;11.562;2022-08-03T05:34:49;15.80;99.90
4604;DHT22;2314;48.272;11.562;2022-08-03T05:37:16;15.90;99.90
4604;DHT22;2314;48.272;11.562;2022-08-03T05:39:44;16.00;99.90
4604;DHT22;2314;48.272;11.562;2022-08-03T05:42:12;16.10;99.90
4604;DHT22;2314;48.272;11.562;2022-08-03T05:44:40;16.20;99.90
4604;DHT22;2314;48.272;11.562;2022-08-03T05:47:07;16.30;99.90
4604;DHT22;2314;48.272;11.562;2022-08-03T05:49:36;16.40;99.90
4604;DHT22;2314;48.272;11.562;2022-08-03T05:52:03;16.50;99.90
4604;DHT22;2314;48.272;11.562;2022-08-03T05:54:30;16.70;99.90
4604;DHT22;2314;48.272;11.562;2022-08-03T05:56:57;16.80;99.90
4604;DHT22;2314;48.272;11.562;2022-08-03T05:59:24;17.10;99.90
4604;DHT22;2314;48.272;11.562;2022-08-03T06:01:51;17.50;99.90
4604;DHT22;2314;48.272;11.562;2022-08-03T06:04:19;18.00;99.90
4604;DHT22;2314;48.272;11.562;2022-08-03T06:06:47;18.50;99.90
4604;DHT22;2314;48.272;11.562;2022-08-03T06:09:15;19.10;99.90
4604;DHT22;2314;48.272;11.562;2022-08-03T06:11:42;19.60;99.90
4604;DHT22;2314;48.272;11.562;2022-08-03T06:14:09;19.90;99.90
4604;DHT22;2314;48.272;11.562;2022-08-03T06:16:36;20.10;99.90
4604;DHT22;2314;48.272;11.562;2022-08-03T06:19:03;20.30;99.90
4604;DHT22;2314;48.272;11.562;2022-08-03T06:21:30;20.40;99.90
4604;DHT22;2314;48.272;11.562;2022-08-03T06:23:59;20.50;99.90
4604;DHT22;2314;48.272;11.562;2022-08-03T06:26:26;20.40;99.90
4604;DHT22;2314;48.272;11.562;2022-08-03T06:28:54;20.50;99.90
4604;DHT22;2314;48.272;11.562;2022-08-03T06:31:22;20.60;99.90
4604;DHT22;2314;48.272;11.562;2022-08-03T06:33:51;20.70;99.90
4604;DHT22;2314;48.272;11.562;2022-08-03T06:36:18;20.80;99.90
4604;DHT22;2314;48.272;11.562;2022-08-03T06:38:45;20.80;99.90
4604;DHT22;2314;48.272;11.562;2022-08-03T06:41:14;20.90;99.90
4604;DHT22;2314;48.272;11.562;2022-08-03T06:43:41;20.90;99.90
4604;DHT22;2314;48.272;11.562;2022-08-03T06:46:08;21.00;99.90
4604;DHT22;2314;48.272;11.562;2022-08-03T06:48:36;21.00;99.90
4604;DHT22;2314;48.272;11.562;2022-08-03T06:51:03;21.00;99.90
4604;DHT22;2314;48.272;11.562;2022-08-03T06:53:30;21.10;99.90
4604;DHT22;2314;48.272;11.562;2022-08-03T06:55:57;21.00;99.90
4604;DHT22;2314;48.272;11.562;2022-08-03T06:58:25;21.00;99.90
4604;DHT22;2314;48.272;11.562;2022-08-03T07:00:52;21.20;99.90
4604;DHT22;2314;48.272;11.562;2022-08-03T07:03:19;21.30;99.90
4604;DHT22;2314;48.272;11.562;2022-08-03T07:05:46;21.40;99.90
4604;DHT22;2314;48.272;11.562;2022-08-03T07:08:14;21.50;99.90
4604;DHT22;2314;48.272;11.562;2022-08-03T07:10:41;21.60;99.90
4604;DHT22;2314;48.272;11.562;2022-08-03T07:13:09;21.80;99.90
4604;DHT22;2314;48.272;11.562;2022-08-03T07:15:38;22.20;99.90
4604;DHT22;2314;48.272;11.562;2022-08-03T07:18:06;22.50;99.90
4604;DHT22;2314;48.272;11.562;2022-08-03T07:20:33;22.70;99.90
4604;DHT22;2314;48.272;11.562;2022-08-03T07:23:00;22.70;99.90
4604;DHT22;2314;48.272;11.562;2022-08-03T07:25:27;22.50;99.90
4604;DHT22;2314;48.272;11.562;2022-08-03T07:27:54;22.60;99.90
4604;DHT22;2314;48.272;11.562;2022-08-03T07:30:21;22.50;99.90
4604;DHT22;2314;48.272;11.562;2022-08-03T07:32:50;22.40;99.90
4604;DHT22;2314;48.272;11.562;2022-08-03T07:35:17;22.50;99.90
4604;DHT22;2314;48.272;11.562;2022-08-03T07:37:44;22.90;99.90
4604;DHT22;2314;48.272;11.562;2022-08-03T07:40:11;23.50;99.90
4604;DHT22;2314;48.272;11.562;2022-08-03T07:42:38;23.70;99.90
4604;DHT22;2314;48.272;11.562;2022-08-03T07:45:07;23.80;99.90
4604;DHT22;2314;48.272;11.562;2022-08-03T07:47:34;23.90;99.90
4604;DHT22;2314;48.272;11.562;2022-08-03T07:50:05;24.00;99.90
4604;DHT22;2314;48.272;11.562;2022-08-03T07:52:32;23.90;99.90
4604;DHT22;2314;48.272;11.562;2022-08-03T07:55:16;23.80;99.90
4604;DHT22;2314;48.272;11.562;2022-08-03T07:57:44;23.70;99.90
4604;DHT22;2314;48.272;11.562;2022-08-03T08:00:14;23.70;99.90
4604;DHT22;2314;48.272;11.562;2022-08-03T08:02:42;23.80;99.90
4604;DHT22;2314;48.272;11.562;2022-08-03T08:05:11;23.90;99.90
4604;DHT22;2314;48.272;11.562;2022-08-03T08:07:38;24.00;99.90
4604;DHT22;2314;48.272;11.562;2022-08-03T08:10:07;24.00;99.90
4604;DHT22;2314;48.272;11.562;2022-08-03T08:12:35;24.00;99.90
4604;DHT22;2314;48.272;11.562;2022-08-03T08:15:04;23.90;99.90
4604;DHT22;2314;48.272;11.562;2022-08-03T08:17:40;24.00;99.90
4604;DHT22;2314;48.272;11.562;2022-08-03T08:20:14;24.10;99.90
4604;DHT22;2314;48.272;11.562;2022-08-03T08:22:42;24.30;99.90
4604;DHT22;2314;48.272;11.562;2022-08-03T08:25:09;24.80;99.70
4604;DHT22;2314;48.272;11.562;2022-08-03T08:27:41;25.60;98.10
4604;DHT22;2314;48.272;11.562;2022-08-03T08:30:09;26.20;96.40
4604;DHT22;2314;48.272;11.562;2022-08-03T08:32:38;26.40;94.60
4604;DHT22;2314;48.272;11.562;2022-08-03T08:35:07;26.40;93.30
4604;DHT22;2314;48.272;11.562;2022-08-03T08:37:36;26.30;94.70
4604;DHT22;2314;48.272;11.562;2022-08-03T08:40:06;26.50;93.50
4604;DHT22;2314;48.272;11.562;2022-08-03T08:42:36;27.40;93.70
4604;DHT22;2314;48.272;11.562;2022-08-03T08:45:05;28.40;90.10
4604;DHT22;2314;48.272;11.562;2022-08-03T08:47:36;29.20;82.70
4604;DHT22;2314;48.272;11.562;2022-08-03T08:50:08;29.70;86.20
4604;DHT22;2314;48.272;11.562;2022-08-03T08:52:39;30.20;81.20
4604;DHT22;2314;48.272;11.562;2022-08-03T08:55:08;30.80;77.30
4604;DHT22;2314;48.272;11.562;2022-08-03T08:57:40;31.20;67.50
4604;DHT22;2314;48.272;11.562;2022-08-03T09:00:11;31.40;70.40
4604;DHT22;2314;48.272;11.562;2022-08-03T09:02:40;31.60;62.60
4604;DHT22;2314;48.272;11.562;2022-08-03T09:05:09;31.80;64.80
4604;DHT22;2314;48.272;11.562;2022-08-03T09:07:52;31.80;62.00
4604;DHT22;2314;48.272;11.562;2022-08-03T09:10:19;32.20;60.40
4604;DHT22;2314;48.272;11.562;2022-08-03T09:12:48;32.20;58.70
4604;DHT22;2314;48.272;11.562;2022-08-03T09:15:18;32.30;56.40
4604;DHT22;2314;48.272;11.562;2022-08-03T09:17:47;32.00;57.10
4604;DHT22;2314;48.272;11.562;2022-08-03T09:20:15;31.90;55.70
4604;DHT22;2314;48.272;11.562;2022-08-03T09:22:56;32.40;52.90
4604;DHT22;2314;48.272;11.562;2022-08-03T09:25:31;32.60;54.50
4604;DHT22;2314;48.272;11.562;2022-08-03T09:28:08;32.20;53.50
4604;DHT22;2314;48.272;11.562;2022-08-03T09:30:38;32.10;52.50
4604;DHT22;2314;48.272;11.562;2022-08-03T09:33:06;32.00;52.20
4604;DHT22;2314;48.272;11.562;2022-08-03T09:35:39;32.50;50.60
4604;DHT22;2314;48.272;11.562;2022-08-03T09:38:13;32.90;51.00
4604;DHT22;2314;48.272;11.562;2022-08-03T09:40:42;32.80;48.50
4604;DHT22;2314;48.272;11.562;2022-08-03T09:43:10;33.20;48.70
4604;DHT22;2314;48.272;11.562;2022-08-03T09:45:39;33.80;52.00
4604;DHT22;2314;48.272;11.562;2022-08-03T09:48:23;34.40;44.80
4604;DHT22;2314;48.272;11.562;2022-08-03T09:50:52;33.90;43.00
4604;DHT22;2314;48.272;11.562;2022-08-03T09:53:22;33.30;41.60
4604;DHT22;2314;48.272;11.562;2022-08-03T09:55:51;33.20;44.90
4604;DHT22;2314;48.272;11.562;2022-08-03T09:58:20;33.50;44.20
4604;DHT22;2314;48.272;11.562;2022-08-03T10:00:52;33.40;42.40
4604;DHT22;2314;48.272;11.562;2022-08-03T10:03:21;32.70;44.20
4604;DHT22;2314;48.272;11.562;2022-08-03T10:05:49;33.00;44.50
4604;DHT22;2314;48.272;11.562;2022-08-03T10:08:18;33.10;40.90
4604;DHT22;2314;48.272;11.562;2022-08-03T10:10:47;32.40;39.30
4604;DHT22;2314;48.272;11.562;2022-08-03T10:13:19;33.20;41.70
4604;DHT22;2314;48.272;11.562;2022-08-03T10:15:47;32.70;42.10
4604;DHT22;2314;48.272;11.562;2022-08-03T10:18:14;33.20;42.90
4604;DHT22;2314;48.272;11.562;2022-08-03T10:20:44;33.20;41.20
4604;DHT22;2314;48.272;11.562;2022-08-03T10:23:13;32.90;43.40
4604;DHT22;2314;48.272;11.562;2022-08-03T10:25:46;32.90;43.50
4604;DHT22;2314;48.272;11.562;2022-08-03T10:28:17;33.60;42.00
4604;DHT22;2314;48.272;11.562;2022-08-03T10:30:47;33.50;42.00
4604;DHT22;2314;48.272;11.562;2022-08-03T10:33:19;33.60;44.00
4604;DHT22;2314;48.272;11.562;2022-08-03T10:35:49;33.60;44.00
4604;DHT22;2314;48.272;11.562;2022-08-03T10:38:25;33.40;44.70
4604;DHT22;2314;48.272;11.562;2022-08-03T10:40:58;33.60;43.00
4604;DHT22;2314;48.272;11.562;2022-08-03T10:43:39;34.20;40.10
4604;DHT22;2314;48.272;11.562;2022-08-03T10:46:09;34.10;40.70
4604;DHT22;2314;48.272;11.562;2022-08-03T10:48:37;33.20;39.40
4604;DHT22;2314;48.272;11.562;2022-08-03T10:51:04;33.20;41.80
4604;DHT22;2314;48.272;11.562;2022-08-03T10:53:36;33.60;40.10
4604;DHT22;2314;48.272;11.562;2022-08-03T10:56:39;33.70;40.30
4604;DHT22;2314;48.272;11.562;2022-08-03T10:59:56;34.20;40.50
4604;DHT22;2314;48.272;11.562;2022-08-03T11:05:40;33.50;38.90
4604;DHT22;2314;48.272;11.562;2022-08-03T11:08:22;34.30;35.60
4604;DHT22;2314;48.272;11.562;2022-08-03T11:10:56;34.70;33.20
4604;DHT22;2314;48.272;11.562;2022-08-03T11:13:29;34.10;36.10
4604;DHT22;2314;48.272;11.562;2022-08-03T11:16:01;34.40;36.30
4604;DHT22;2314;48.272;11.562;2022-08-03T11:18:30;33.80;34.00
4604;DHT22;2314;48.272;11.562;2022-08-03T11:20:58;34.00;35.00
4604;DHT22;2314;48.272;11.562;2022-08-03T11:23:43;33.70;34.50
4604;DHT22;2314;48.272;11.562;2022-08-03T11:26:15;34.20;36.40
4604;DHT22;2314;48.272;11.562;2022-08-03T11:28:46;34.00;35.00
4604;DHT22;2314;48.272;11.562;2022-08-03T11:31:44;34.20;36.60
4604;DHT22;2314;48.272;11.562;2022-08-03T11:34:14;35.00;32.00
4604;DHT22;2314;48.272;11.562;2022-08-03T11:37:19;34.90;34.00
4604;DHT22;2314;48.272;11.562;2022-08-03T11:39:50;34.60;31.00
4604;DHT22;2314;48.272;11.562;2022-08-03T11:42:40;33.60;32.90
4604;DHT22;2314;48.272;11.562;2022-08-03T11:45:14;33.30;33.70
4604;DHT22;2314;48.272;11.562;2022-08-03T11:47:42;33.90;34.40
4604;DHT22;2314;48.272;11.562;2022-08-03T11:50:10;34.20;36.80
4604;DHT22;2314;48.272;11.562;2022-08-03T11:52:40;34.20;34.00
4604;DHT22;2314;48.272;11.562;2022-08-03T11:55:12;34.20;36.20
4604;DHT22;2314;48.272;11.562;2022-08-03T11:57:41;34.70;33.80
4604;DHT22;2314;48.272;11.562;2022-08-03T12:00:26;34.50;33.50
4604;DHT22;2314;48.272;11.562;2022-08-03T12:02:56;34.40;31.70
4604;DHT22;2314;48.272;11.562;2022-08-03T12:05:44;33.50;29.30
4604;DHT22;2314;48.272;11.562;2022-08-03T12:08:14;33.50;28.40
4604;DHT22;2314;48.272;11.562;2022-08-03T12:10:47;33.80;31.50
4604;DHT22;2314;48.272;11.562;2022-08-03T12:13:16;33.90;32.10
4604;DHT22;2314;48.272;11.562;2022-08-03T12:15:50;34.30;31.10
4604;DHT22;2314;48.272;11.562;2022-08-03T12:18:18;34.80;30.60
4604;DHT22;2314;48.272;11.562;2022-08-03T12:20:47;34.70;29.70
4604;DHT22;2314;48.272;11.562;2022-08-03T12:23:15;34.20;27.30
4604;DHT22;2314;48.272;11.562;2022-08-03T12:25:44;33.60;27.40
4604;DHT22;2314;48.272;11.562;2022-08-03T12:28:15;34.10;27.70
4604;DHT22;2314;48.272;11.562;2022-08-03T12:30:47;33.70;27.70
4604;DHT22;2314;48.272;11.562;2022-08-03T12:33:17;34.20;28.40
4604;DHT22;2314;48.272;11.562;2022-08-03T12:35:48;34.30;30.00
4604;DHT22;2314;48.272;11.562;2022-08-03T12:38:20;34.30;27.40
4604;DHT22;2314;48.272;11.562;2022-08-03T12:40:56;34.20;27.60
4604;DHT22;2314;48.272;11.562;2022-08-03T12:43:24;33.80;26.90
4604;DHT22;2314;48.272;11.562;2022-08-03T12:46:06;34.40;27.30
4604;DHT22;2314;48.272;11.562;2022-08-03T12:49:02;34.50;26.00
4604;DHT22;2314;48.272;11.562;2022-08-03T12:51:32;33.60;26.60
4604;DHT22;2314;48.272;11.562;2022-08-03T12:54:01;33.50;27.50
4604;DHT22;2314;48.272;11.562;2022-08-03T12:56:30;33.70;26.70
4604;DHT22;2314;48.272;11.562;2022-08-03T12:58:57;33.70;27.80
4604;DHT22;2314;48.272;11.562;2022-08-03T13:01:25;33.90;29.00
4604;DHT22;2314;48.272;11.562;2022-08-03T13:04:02;34.00;28.10
4604;DHT22;2314;48.272;11.562;2022-08-03T13:06:30;33.60;26.00
4604;DHT22;2314;48.272;11.562;2022-08-03T13:09:02;33.60;27.40
4604;DHT22;2314;48.272;11.562;2022-08-03T13:11:30;33.80;28.60
4604;DHT22;2314;48.272;11.562;2022-08-03T13:13:57;34.10;27.10
4604;DHT22;2314;48.272;11.562;2022-08-03T13:16:25;33.90;27.50
4604;DHT22;2314;48.272;11.562;2022-08-03T13:18:52;33.70;25.20
4604;DHT22;2314;48.272;11.562;2022-08-03T13:21:20;34.00;26.50
4604;DHT22;2314;48.272;11.562;2022-08-03T13:23:47;34.40;25.60
4604;DHT22;2314;48.272;11.562;2022-08-03T13:26:14;34.40;26.10
4604;DHT22;2314;48.272;11.562;2022-08-03T13:28:42;34.00;26.80
4604;DHT22;2314;48.272;11.562;2022-08-03T13:31:09;33.60;26.20
4604;DHT22;2314;48.272;11.562;2022-08-03T13:33:37;33.80;27.80
4604;DHT22;2314;48.272;11.562;2022-08-03T13:36:05;34.10;28.80
4604;DHT22;2314;48.272;11.562;2022-08-03T13:38:33;33.60;27.40
4604;DHT22;2314;48.272;11.562;2022-08-03T13:41:01;33.50;29.30
4604;DHT22;2314;48.272;11.562;2022-08-03T13:43:29;33.90;27.30
4604;DHT22;2314;48.272;11.562;2022-08-03T13:45:56;33.70;27.40
4604;DHT22;2314;48.272;11.562;2022-08-03T13:48:23;33.30;27.30
4604;DHT22;2314;48.272;11.562;2022-08-03T13:50:51;32.90;26.30
4604;DHT22;2314;48.272;11.562;2022-08-03T13:53:19;32.80;27.80
4604;DHT22;2314;48.272;11.562;2022-08-03T13:55:46;33.20;29.00
4604;DHT22;2314;48.272;11.562;2022-08-03T13:58:13;33.40;27.60
4604;DHT22;2314;48.272;11.562;2022-08-03T14:00:40;33.60;28.80
4604;DHT22;2314;48.272;11.562;2022-08-03T14:03:07;33.80;27.80
4604;DHT22;2314;48.272;11.562;2022-08-03T14:05:34;33.90;28.50
4604;DHT22;2314;48.272;11.562;2022-08-03T14:08:04;34.00;27.60
4604;DHT22;2314;48.272;11.562;2022-08-03T14:10:36;34.20;26.60
4604;DHT22;2314;48.272;11.562;2022-08-03T14:13:07;34.30;26.00
4604;DHT22;2314;48.272;11.562;2022-08-03T14:15:35;33.60;26.90
4604;DHT22;2314;48.272;11.562;2022-08-03T14:18:02;33.60;27.00
4604;DHT22;2314;48.272;11.562;2022-08-03T14:20:30;33.50;29.90
4604;DHT22;2314;48.272;11.562;2022-08-03T14:22:57;33.30;29.50
4604;DHT22;2314;48.272;11.562;2022-08-03T14:25:25;33.60;27.10
4604;DHT22;2314;48.272;11.562;2022-08-03T14:27:52;33.60;27.40
4604;DHT22;2314;48.272;11.562;2022-08-03T14:30:21;33.20;26.70
4604;DHT22;2314;48.272;11.562;2022-08-03T14:32:48;33.10;27.30
4604;DHT22;2314;48.272;11.562;2022-08-03T14:35:15;33.20;29.00
4604;DHT22;2314;48.272;11.562;2022-08-03T14:37:42;33.10;27.50
4604;DHT22;2314;48.272;11.562;2022-08-03T14:40:09;33.00;27.20
4604;DHT22;2314;48.272;11.562;2022-08-03T14:42:39;33.40;27.20
4604;DHT22;2314;48.272;11.562;2022-08-03T14:45:07;33.50;26.60
4604;DHT22;2314;48.272;11.562;2022-08-03T14:47:34;33.40;26.10
4604;DHT22;2314;48.272;11.562;2022-08-03T14:50:02;33.10;26.80
4604;DHT22;2314;48.272;11.562;2022-08-03T14:52:30;32.90;27.20
4604;DHT22;2314;48.272;11.562;2022-08-03T14:54:59;32.80;27.90
4604;DHT22;2314;48.272;11.562;2022-08-03T14:57:26;33.00;27.10
4604;DHT22;2314;48.272;11.562;2022-08-03T15:00:11;33.30;26.00
4604;DHT22;2314;48.272;11.562;2022-08-03T15:02:39;33.30;26.70
4604;DHT22;2314;48.272;11.562;2022-08-03T15:05:07;33.30;26.30
4604;DHT22;2314;48.272;11.562;2022-08-03T15:07:37;33.10;26.40
4604;DHT22;2314;48.272;11.562;2022-08-03T15:10:04;33.10;25.30
4604;DHT22;2314;48.272;11.562;2022-08-03T15:12:32;32.70;27.10
4604;DHT22;2314;48.272;11.562;2022-08-03T15:15:00;32.60;28.10
4604;DHT22;2314;48.272;11.562;2022-08-03T15:17:27;32.50;27.30
4604;DHT22;2314;48.272;11.562;2022-08-03T15:19:54;32.50;27.00
4604;DHT22;2314;48.272;11.562;2022-08-03T15:22:21;32.70;26.00
4604;DHT22;2314;48.272;11.562;2022-08-03T15:24:49;32.70;26.70
4604;DHT22;2314;48.272;11.562;2022-08-03T15:27:16;32.70;27.20
4604;DHT22;2314;48.272;11.562;2022-08-03T15:29:43;32.50;27.40
4604;DHT22;2314;48.272;11.562;2022-08-03T15:32:11;32.50;27.20
4604;DHT22;2314;48.272;11.562;2022-08-03T15:34:38;32.70;26.80
4604;DHT22;2314;48.272;11.562;2022-08-03T15:37:05;32.60;26.10
4604;DHT22;2314;48.272;11.562;2022-08-03T15:39:32;32.60;25.70
4604;DHT22;2314;48.272;11.562;2022-08-03T15:41:59;32.50;26.50
4604;DHT22;2314;48.272;11.562;2022-08-03T15:44:26;32.50;25.40
4604;DHT22;2314;48.272;11.562;2022-08-03T15:46:53;32.40;27.10
4604;DHT22;2314;48.272;11.562;2022-08-03T15:49:22;32.40;25.60
4604;DHT22;2314;48.272;11.562;2022-08-03T15:51:49;32.30;25.80
4604;DHT22;2314;48.272;11.562;2022-08-03T15:54:16;32.10;27.10
4604;DHT22;2314;48.272;11.562;2022-08-03T15:56:43;32.20;27.30
4604;DHT22;2314;48.272;11.562;2022-08-03T15:59:11;32.20;26.50
4604;DHT22;2314;48.272;11.562;2022-08-03T16:01:38;32.10;27.30
4604;DHT22;2314;48.272;11.562;2022-08-03T16:04:05;32.20;27.20
4604;DHT22;2314;48.272;11.562;2022-08-03T16:06:34;32.20;27.10
4604;DHT22;2314;48.272;11.562;2022-08-03T16:09:01;32.20;26.30